Chojnice, Poland
Current Conditions -  °F | °C
As of 5:00 AM on Wednesday 26 Nov 2014 (Local Time) from EPBY Reporting Station
Haze Haze  
Wind Chill: 38°   Ceiling: 400
Heat Index: 41°   Visibility: 3mi
Dew Point: 39°   Wind: 5mph
Humidity: 93%   Direction: 10°N
Pressure: 30.3"   Gusts: NA
Location:  53.7°N, 17.57°E
Report Text: EPBY 260300Z 01004KT 340V040 5000 BR OVC004 05/04 Q1026
Loading
Personal Weather Stations






























Interactive Weather Map New forecast layout! Learn more

10-Day Weather Forecast

Advertisements
Track Severe Weather on mobile